Time;durP1;ratioP1;P1;durP2;ratioP2;P2;SDS_P1;SDS_P2;PMS_P1;PMS_P2;Temp;Humidity;BMP_temperature;BMP_pressure;BME280_temperature;BME280_humidity;BME280_pressure;Samples;Min_cycle;Max_cycle;Signal;HPM_P1;HPM_P2
2024/02/25 00:00:21;;;;;;;0.60;0.60;;;;;;;2.92;87.47;95861.87;29396;196;63004;-54
2024/02/25 00:00:52;;;;;;;0.60;0.60;;;;;;;2.91;87.41;95859.47;29396;201;63008;-54
2024/02/25 00:01:24;;;;;;;0.60;0.60;;;;;;;2.90;87.80;95857.88;29396;290;63005;-55
2024/02/25 00:01:58;;;;;;;0.70;0.70;;;;;;;2.92;87.76;95863.75;29396;256;64013;-55
2024/02/25 00:02:31;;;;;;;0.60;0.60;;;;;;;2.97;87.48;95858.41;29396;198;63005;-54
2024/02/25 00:03:03;;;;;;;0.60;0.60;;;;;;;2.98;87.31;95860.81;29396;202;63009;-54
2024/02/25 00:03:34;;;;;;;0.60;0.60;;;;;;;2.98;87.35;95862.69;29396;202;63005;-54
2024/02/25 00:04:06;;;;;;;0.60;0.60;;;;;;;2.97;87.42;95855.72;29396;213;63009;-54
2024/02/25 00:04:37;;;;;;;0.60;0.60;;;;;;;2.95;87.44;95863.22;29396;276;63004;-54
2024/02/25 00:05:09;;;;;;;0.60;0.60;;;;;;;2.94;87.64;95865.09;29396;260;63009;-54
2024/02/25 00:05:41;;;;;;;0.60;0.60;;;;;;;2.94;87.46;95866.97;29396;208;63004;-66
2024/02/25 00:06:14;;;;;;;0.80;0.80;;;;;;;2.93;87.60;95863.50;29396;218;63009;-54
2024/02/25 00:06:45;;;;;;;0.60;0.60;;;;;;;2.93;87.62;95870.72;29396;230;63004;-55
2024/02/25 00:07:17;;;;;;;0.60;0.60;;;;;;;2.95;87.28;95863.22;29395;209;64013;-55
2024/02/25 00:07:48;;;;;;;0.60;0.60;;;;;;;2.94;87.51;95864.31;29396;225;63005;-55
2024/02/25 00:08:19;;;;;;;0.90;0.90;;;;;;;2.98;87.33;95860.00;29396;230;63009;-55
2024/02/25 00:08:50;;;;;;;0.68;0.68;;;;;;;3.01;87.13;95862.16;29396;204;63009;-55
2024/02/25 00:09:21;;;;;;;0.60;0.60;;;;;;;2.99;86.71;95866.97;29396;209;63009;-54
2024/02/25 00:09:54;;;;;;;0.80;0.80;;;;;;;2.99;86.76;95866.97;29396;212;63005;-54
2024/02/25 00:10:25;;;;;;;0.60;0.60;;;;;;;2.98;86.56;95866.19;29396;197;63009;-63
2024/02/25 00:10:59;;;;;;;0.60;0.60;;;;;;;2.97;86.76;95863.75;29396;222;63005;-54
2024/02/25 00:11:30;;;;;;;0.60;0.60;;;;;;;2.93;86.71;95863.50;29396;202;63009;-65
2024/02/25 00:12:02;;;;;;;0.60;0.60;;;;;;;2.90;86.85;95857.88;29396;232;63010;-55
2024/02/25 00:12:33;;;;;;;0.60;0.60;;;;;;;2.92;87.22;95855.72;29395;202;64013;-55
2024/02/25 00:13:04;;;;;;;0.60;0.60;;;;;;;2.93;87.43;95868.06;29396;199;63009;-56
2024/02/25 00:13:37;;;;;;;0.80;0.80;;;;;;;2.96;86.94;95868.31;29396;205;63009;-54
2024/02/25 00:14:11;;;;;;;0.60;0.60;;;;;;;2.94;86.97;95861.63;29396;239;63004;-53
2024/02/25 00:14:43;;;;;;;0.60;0.60;;;;;;;2.94;86.95;95869.66;29396;206;63008;-54
2024/02/25 00:15:14;;;;;;;0.60;0.60;;;;;;;2.90;87.13;95868.59;29396;235;63005;-55
2024/02/25 00:15:45;;;;;;;0.60;0.60;;;;;;;2.85;87.09;95865.91;29396;205;63009;-55
2024/02/25 00:16:17;;;;;;;0.60;0.60;;;;;;;2.84;87.28;95865.09;29396;255;63005;-54
2024/02/25 00:16:48;;;;;;;0.70;0.70;;;;;;;2.87;87.12;95861.09;29396;200;63009;-55
2024/02/25 00:17:19;;;;;;;0.60;0.60;;;;;;;2.88;87.30;95866.19;29396;234;63005;-55
2024/02/25 00:17:53;;;;;;;7.00;5.70;;;;;;;2.88;87.28;95865.38;29395;265;64013;-54
2024/02/25 00:18:28;;;;;;;0.60;0.60;;;;;;;2.89;87.12;95866.97;29396;221;63005;-65
2024/02/25 00:19:00;;;;;;;0.60;0.60;;;;;;;2.91;87.18;95870.19;29396;335;63009;-54
2024/02/25 00:19:32;;;;;;;0.60;0.60;;;;;;;2.91;87.39;95865.62;29396;198;63004;-54
2024/02/25 00:20:04;;;;;;;0.60;0.60;;;;;;;2.91;86.88;95872.88;29396;204;63009;-56
2024/02/25 00:20:36;;;;;;;0.60;0.60;;;;;;;2.88;86.96;95868.06;29395;218;64009;-54
2024/02/25 00:21:08;;;;;;;0.60;0.60;;;;;;;2.87;87.08;95874.47;29396;202;63009;-55
2024/02/25 00:21:40;;;;;;;0.60;0.60;;;;;;;2.87;86.88;95869.13;29396;222;63004;-54
2024/02/25 00:22:11;;;;;;;0.60;0.60;;;;;;;2.84;86.92;95869.66;29396;210;63008;-54
2024/02/25 00:22:42;;;;;;;0.60;0.60;;;;;;;2.80;87.28;95868.59;29396;216;63004;-54
2024/02/25 00:23:13;;;;;;;0.70;0.70;;;;;;;2.80;87.25;95868.59;29396;232;63009;-54
2024/02/25 00:23:45;;;;;;;0.70;0.70;;;;;;;2.82;87.32;95866.44;29396;317;63005;-54
2024/02/25 00:24:17;;;;;;;0.60;0.60;;;;;;;2.84;87.40;95869.66;29396;274;63009;-54
2024/02/25 00:24:48;;;;;;;0.60;0.60;;;;;;;2.83;87.19;95868.06;29396;216;63005;-56
2024/02/25 00:25:19;;;;;;;0.60;0.60;;;;;;;2.84;87.16;95869.66;29396;205;63005;-54
2024/02/25 00:25:51;;;;;;;0.60;0.60;;;;;;;2.85;87.19;95871.25;29395;198;64009;-54
2024/02/25 00:26:22;;;;;;;0.60;0.60;;;;;;;2.84;87.08;95875.00;29396;287;63009;-56
2024/02/25 00:26:53;;;;;;;0.60;0.60;;;;;;;2.84;86.98;95870.47;29396;230;63005;-54
2024/02/25 00:27:25;;;;;;;0.60;0.60;;;;;;;2.84;87.20;95875.81;29396;242;63009;-55
2024/02/25 00:27:56;;;;;;;0.60;0.60;;;;;;;2.86;87.20;95873.69;29396;275;63004;-54
2024/02/25 00:28:27;;;;;;;0.60;0.60;;;;;;;2.86;87.03;95872.88;29397;233;63009;-54
2024/02/25 00:28:58;;;;;;;0.60;0.60;;;;;;;2.87;87.17;95879.84;29397;209;63004;-54
2024/02/25 00:29:35;;;;;;;0.60;0.60;;;;;;;2.85;86.77;95873.94;29397;221;63008;-54
2024/02/25 00:30:09;;;;;;;0.60;0.60;;;;;;;2.85;87.22;95874.75;29397;236;63004;-54
2024/02/25 00:30:40;;;;;;;0.60;0.60;;;;;;;2.87;86.81;95875.28;29397;202;63009;-54
2024/02/25 00:31:12;;;;;;;0.60;0.60;;;;;;;2.88;86.83;95871.53;29395;256;64009;-54
2024/02/25 00:31:43;;;;;;;0.60;0.60;;;;;;;2.86;86.67;95867.50;29395;234;63009;-54
2024/02/25 00:32:14;;;;;;;0.60;0.60;;;;;;;2.88;86.94;95876.87;29395;336;63005;-54
2024/02/25 00:32:46;;;;;;;0.60;0.60;;;;;;;2.86;86.85;95873.69;29395;294;63009;-55
2024/02/25 00:33:17;;;;;;;0.60;0.60;;;;;;;2.88;86.72;95876.87;29395;208;63005;-54
2024/02/25 00:33:48;;;;;;;0.60;0.60;;;;;;;2.88;86.44;95876.09;29395;202;63009;-54
2024/02/25 00:34:19;;;;;;;0.60;0.60;;;;;;;2.85;86.79;95874.75;29395;213;63005;-54
2024/02/25 00:34:50;;;;;;;0.60;0.60;;;;;;;2.86;86.68;95878.22;29395;216;63009;-54
2024/02/25 00:35:22;;;;;;;0.60;0.60;;;;;;;2.85;86.88;95871.25;29394;248;64004;-56
2024/02/25 00:35:53;;;;;;;0.60;0.60;;;;;;;2.84;86.97;95880.38;29395;197;63009;-55
2024/02/25 00:36:24;;;;;;;0.60;0.60;;;;;;;2.86;87.11;95872.88;29393;204;64009;-55
2024/02/25 00:36:56;;;;;;;0.60;0.60;;;;;;;2.88;87.01;95881.44;29395;202;63015;-55
2024/02/25 00:37:28;;;;;;;0.60;0.60;;;;;;;2.88;86.81;95873.41;29395;217;63004;-54
2024/02/25 00:37:59;;;;;;;0.60;0.60;;;;;;;2.88;86.70;95878.75;29395;218;63009;-54
2024/02/25 00:38:30;;;;;;;0.60;0.60;;;;;;;2.85;86.88;95877.44;29395;419;63005;-55
2024/02/25 00:39:03;;;;;;;0.60;0.60;;;;;;;2.87;87.15;95886.00;29395;244;63009;-55
2024/02/25 00:39:36;;;;;;;0.60;0.60;;;;;;;2.90;86.95;95879.31;29395;215;63005;-54
2024/02/25 00:40:09;;;;;;;0.60;0.60;;;;;;;2.89;86.83;95883.06;29396;251;63009;-54
2024/02/25 00:40:45;;;;;;;0.60;0.60;;;;;;;2.86;86.63;95878.22;29395;207;63005;-54
2024/02/25 00:41:16;;;;;;;0.70;0.70;;;;;;;2.85;86.90;95882.78;29395;221;63009;-54
2024/02/25 00:41:51;;;;;;;0.60;0.60;;;;;;;2.82;87.11;95874.47;29393;199;64009;-54
2024/02/25 00:42:27;;;;;;;0.60;0.60;;;;;;;2.80;86.93;95880.09;29395;197;63009;-54
2024/02/25 00:42:58;;;;;;;0.60;0.60;;;;;;;2.79;87.20;95873.12;29395;219;63004;-55
2024/02/25 00:43:29;;;;;;;0.70;0.70;;;;;;;2.78;87.30;95881.44;29395;331;63009;-54
2024/02/25 00:44:00;;;;;;;0.70;0.70;;;;;;;2.76;87.29;95878.25;29395;237;63004;-54
2024/02/25 00:44:35;;;;;;;0.65;0.65;;;;;;;2.72;87.36;95877.97;29395;210;63008;-54
2024/02/25 00:45:07;;;;;;;0.60;0.60;;;;;;;2.67;87.45;95877.97;29394;239;64004;-53
2024/02/25 00:45:38;;;;;;;0.70;0.70;;;;;;;2.63;87.69;95875.03;29395;267;63009;-55
2024/02/25 00:46:11;;;;;;;0.62;0.62;;;;;;;2.62;87.69;95878.78;29395;215;63005;-55
2024/02/25 00:46:42;;;;;;;0.70;0.70;;;;;;;2.61;87.95;95871.81;29395;221;63009;-56
2024/02/25 00:47:14;;;;;;;0.60;0.60;;;;;;;2.61;88.23;95882.53;29393;222;64009;-55
2024/02/25 00:47:45;;;;;;;0.65;0.65;;;;;;;2.63;88.00;95876.91;29395;210;63014;-55
2024/02/25 00:48:18;;;;;;;0.70;0.70;;;;;;;2.63;88.03;95875.03;29395;216;63005;-55
2024/02/25 00:48:49;;;;;;;0.62;0.62;;;;;;;2.67;88.11;95873.44;29395;273;63009;-55
2024/02/25 00:49:22;;;;;;;0.60;0.60;;;;;;;2.69;87.96;95873.16;29395;209;63005;-55
2024/02/25 00:49:54;;;;;;;0.68;0.68;;;;;;;2.72;87.81;95874.50;29395;242;63009;-55
2024/02/25 00:50:25;;;;;;;0.60;0.60;;;;;;;2.76;87.60;95876.38;29395;196;63004;-55
2024/02/25 00:50:56;;;;;;;0.70;0.70;;;;;;;2.75;87.45;95871.28;29395;205;63009;-54
2024/02/25 00:51:27;;;;;;;0.60;0.60;;;;;;;2.75;87.27;95871.28;29395;221;63004;-55
2024/02/25 00:51:59;;;;;;;0.60;0.60;;;;;;;2.75;87.28;95868.59;29395;207;63009;-54
2024/02/25 00:52:33;;;;;;;0.60;0.60;;;;;;;2.74;87.27;95867.00;29393;196;64008;-55
2024/02/25 00:53:04;;;;;;;0.70;0.70;;;;;;;2.69;87.20;95873.97;29395;213;63009;-55
2024/02/25 00:53:39;;;;;;;0.70;0.70;;;;;;;2.71;87.65;95872.88;29395;233;63005;-56
2024/02/25 00:54:11;;;;;;;0.70;0.70;;;;;;;2.71;87.41;95878.25;29395;293;63009;-55
2024/02/25 00:54:44;;;;;;;0.60;0.60;;;;;;;2.71;87.52;95870.22;29395;202;63005;-56
2024/02/25 00:55:15;;;;;;;0.60;0.60;;;;;;;2.67;87.48;95869.94;29395;243;63009;-55
2024/02/25 00:55:47;;;;;;;0.60;0.60;;;;;;;2.63;87.70;95869.66;29395;227;63005;-55
2024/02/25 00:56:22;;;;;;;0.60;0.60;;;;;;;2.62;87.43;95867.25;29395;377;63009;-55
2024/02/25 00:56:54;;;;;;;0.60;0.60;;;;;;;2.62;87.65;95873.41;29395;197;63005;-55
2024/02/25 00:57:26;;;;;;;0.60;0.60;;;;;;;2.62;87.73;95875.28;29395;202;63009;-54
2024/02/25 00:57:57;;;;;;;0.60;0.60;;;;;;;2.60;87.87;95878.22;29393;232;64009;-55
2024/02/25 00:58:29;;;;;;;0.60;0.60;;;;;;;2.58;87.91;95877.69;29395;223;63009;-55
2024/02/25 00:59:00;;;;;;;0.60;0.60;;;;;;;2.56;88.23;95874.47;29395;212;63004;-55
2024/02/25 00:59:31;;;;;;;0.68;0.68;;;;;;;2.56;88.12;95874.47;29395;196;63009;-55
2024/02/25 01:00:03;;;;;;;0.60;0.60;;;;;;;2.56;88.13;95876.34;29395;217;63004;-56
2024/02/25 01:00:34;;;;;;;0.60;0.60;;;;;;;2.58;88.07;95875.00;29395;210;63010;-54
2024/02/25 01:01:06;;;;;;;0.60;0.60;;;;;;;2.58;88.07;95876.87;29395;222;63005;-65
2024/02/25 01:01:37;;;;;;;0.62;0.62;;;;;;;2.55;88.15;95872.88;29395;329;63009;-54
2024/02/25 01:02:09;;;;;;;0.60;0.60;;;;;;;2.56;88.48;95874.47;29395;359;63005;-55
2024/02/25 01:02:41;;;;;;;0.60;0.60;;;;;;;2.54;88.36;95871.25;29395;223;63009;-55
2024/02/25 01:03:12;;;;;;;0.60;0.60;;;;;;;2.55;88.28;95877.41;29393;232;64009;-54
2024/02/25 01:03:44;;;;;;;1.30;1.30;;;;;;;2.52;88.29;95876.06;29395;224;63009;-55
2024/02/25 01:04:18;;;;;;;0.60;0.60;;;;;;;2.49;88.46;95873.94;29395;198;63004;-55
2024/02/25 01:04:49;;;;;;;0.60;0.60;;;;;;;2.48;88.66;95871.50;29394;237;64009;-55
2024/02/25 01:05:21;;;;;;;0.70;0.70;;;;;;;2.49;88.83;95873.94;29395;237;63004;-55
2024/02/25 01:05:53;;;;;;;0.70;0.70;;;;;;;2.49;88.56;95873.94;29395;210;63009;-56
2024/02/25 01:06:24;;;;;;;0.70;0.70;;;;;;;2.48;88.74;95872.31;29395;291;63004;-55
2024/02/25 01:06:55;;;;;;;0.60;0.60;;;;;;;2.47;88.61;95876.06;29395;279;63008;-55
2024/02/25 01:07:26;;;;;;;0.60;0.60;;;;;;;2.46;88.51;95871.78;29395;206;63004;-65
2024/02/25 01:07:59;;;;;;;0.60;0.60;;;;;;;2.49;88.63;95868.56;29395;201;63008;-55
2024/02/25 01:08:30;;;;;;;0.70;0.70;;;;;;;2.47;88.58;95867.22;29393;213;64009;-54
2024/02/25 01:09:08;;;;;;;0.60;0.60;;;;;;;2.46;88.40;95869.09;29395;230;63009;-56
2024/02/25 01:09:39;;;;;;;0.68;0.68;;;;;;;2.44;88.63;95865.88;29395;235;63005;-54
2024/02/25 01:10:10;;;;;;;0.60;0.60;;;;;;;2.40;88.98;95862.16;29395;225;63009;-55
2024/02/25 01:10:42;;;;;;;0.60;0.60;;;;;;;2.39;88.91;95867.78;29395;218;63005;-54
2024/02/25 01:11:17;;;;;;;0.68;0.68;;;;;;;2.37;89.12;95868.03;29395;210;63009;-55
2024/02/25 01:11:48;;;;;;;0.62;0.62;;;;;;;2.40;89.05;95858.69;29395;399;63004;-55
2024/02/25 01:12:21;;;;;;;0.60;0.60;;;;;;;2.43;88.95;95866.97;29395;222;63009;-55
2024/02/25 01:12:52;;;;;;;0.60;0.60;;;;;;;2.43;89.07;95861.59;29395;222;63004;-54
2024/02/25 01:13:23;;;;;;;0.60;0.60;;;;;;;2.43;88.64;95866.16;29395;229;63009;-55
2024/02/25 01:13:55;;;;;;;0.70;0.70;;;;;;;2.42;89.03;95865.38;29393;213;64008;-54
2024/02/25 01:14:26;;;;;;;0.60;0.60;;;;;;;2.42;88.82;95854.66;29395;323;63008;-56
2024/02/25 01:14:57;;;;;;;0.60;0.60;;;;;;;2.43;89.04;95858.94;29395;209;63005;-55
2024/02/25 01:15:29;;;;;;;2.87;2.67;;;;;;;2.43;89.00;95858.94;29395;215;63009;-55
2024/02/25 01:16:04;;;;;;;0.60;0.60;;;;;;;2.42;88.83;95852.00;29395;239;63005;-54
2024/02/25 01:16:35;;;;;;;0.60;0.60;;;;;;;2.44;88.59;95863.22;29395;219;63009;-55
2024/02/25 01:17:09;;;;;;;0.60;0.60;;;;;;;2.43;88.58;95853.56;29395;234;63005;-56
2024/02/25 01:17:41;;;;;;;0.70;0.70;;;;;;;2.39;88.60;95857.88;29395;219;63005;-55
2024/02/25 01:18:12;;;;;;;0.60;0.60;;;;;;;2.36;89.04;95853.06;29395;224;63005;-56
2024/02/25 01:18:43;;;;;;;0.60;0.60;;;;;;;2.34;89.08;95849.84;29395;206;63009;-56
2024/02/25 01:19:17;;;;;;;0.60;0.60;;;;;;;2.32;89.24;95852.78;29393;239;64009;-55
2024/02/25 01:19:48;;;;;;;0.60;0.60;;;;;;;2.33;89.16;95853.56;29395;215;63009;-55
2024/02/25 01:20:19;;;;;;;0.65;0.65;;;;;;;2.38;89.14;95850.91;29395;209;63004;-56
2024/02/25 01:20:50;;;;;;;1.80;1.80;;;;;;;2.46;88.91;95852.25;29395;215;63009;-55
2024/02/25 01:21:22;;;;;;;0.60;0.60;;;;;;;2.49;88.80;95854.37;29395;215;63004;-55
2024/02/25 01:21:53;;;;;;;0.60;0.60;;;;;;;2.49;88.27;95852.50;29395;205;63008;-54
2024/02/25 01:22:24;;;;;;;1.15;1.12;;;;;;;2.48;88.24;95850.09;29395;235;63005;-55
2024/02/25 01:22:55;;;;;;;0.70;0.70;;;;;;;2.46;88.22;95853.03;29395;222;63009;-55
2024/02/25 01:23:26;;;;;;;0.60;0.60;;;;;;;2.44;88.31;95849.03;29395;209;63005;-55
2024/02/25 01:23:58;;;;;;;0.60;0.60;;;;;;;2.44;88.42;95849.81;29395;216;63009;-54
2024/02/25 01:24:29;;;;;;;0.60;0.60;;;;;;;2.43;88.42;95853.56;29394;209;64009;-55
2024/02/25 01:25:01;;;;;;;0.70;0.70;;;;;;;2.42;88.62;95856.53;29395;233;63025;-55
2024/02/25 01:25:32;;;;;;;0.70;0.70;;;;;;;2.43;88.51;95860.78;29395;240;63005;-55
2024/02/25 01:26:04;;;;;;;0.60;0.60;;;;;;;2.41;88.57;95858.41;29395;202;63009;-55
2024/02/25 01:26:40;;;;;;;0.70;0.70;;;;;;;2.38;88.80;95861.63;29395;294;63004;-55
2024/02/25 01:27:11;;;;;;;0.60;0.60;;;;;;;2.35;88.88;95857.59;29395;210;63009;-55
2024/02/25 01:27:44;;;;;;;12.32;2.25;;;;;;;2.40;88.87;95853.31;29390;209;64004;-54
2024/02/25 01:28:16;;;;;;;0.60;0.60;;;;;;;2.41;88.85;95855.75;29394;243;64009;-55
2024/02/25 01:28:47;;;;;;;0.60;0.60;;;;;;;2.42;88.89;95854.66;29395;247;63004;-56
2024/02/25 01:29:19;;;;;;;0.65;0.65;;;;;;;2.42;88.62;95857.34;29395;206;63008;-56
2024/02/25 01:29:51;;;;;;;0.70;0.70;;;;;;;2.41;88.63;95863.78;29394;204;64009;-55
2024/02/25 01:30:22;;;;;;;0.62;0.62;;;;;;;2.39;88.81;95857.88;29395;226;63009;-55
2024/02/25 01:30:53;;;;;;;0.70;0.70;;;;;;;2.35;88.94;95859.47;29395;205;63005;-55
2024/02/25 01:31:24;;;;;;;0.68;0.68;;;;;;;2.37;88.96;95860.00;29395;199;63018;-56
2024/02/25 01:31:56;;;;;;;0.60;0.60;;;;;;;2.36;88.78;95853.06;29395;317;63005;-55
2024/02/25 01:32:27;;;;;;;0.70;0.70;;;;;;;2.37;88.91;95857.34;29395;278;63009;-55
2024/02/25 01:32:59;;;;;;;0.70;0.70;;;;;;;2.39;88.88;95857.88;29373;224;63005;-54
2024/02/25 01:33:31;;;;;;;1.10;1.10;;;;;;;2.37;88.64;95857.34;29395;205;63009;-55
2024/02/25 01:34:03;;;;;;;0.70;0.70;;;;;;;2.33;88.77;95854.37;29395;290;63004;-55
2024/02/25 01:34:34;;;;;;;0.70;0.70;;;;;;;2.32;88.92;95849.28;29395;235;63004;-55
2024/02/25 01:35:07;;;;;;;0.60;0.60;;;;;;;2.32;89.31;95857.31;29394;235;64009;-55
2024/02/25 01:35:38;;;;;;;0.70;0.70;;;;;;;2.34;89.19;95849.84;29395;208;63009;-56
2024/02/25 01:36:09;;;;;;;0.70;0.70;;;;;;;2.31;89.10;95853.84;29395;231;63004;-55
2024/02/25 01:36:41;;;;;;;0.60;0.60;;;;;;;2.32;89.19;95857.31;29395;224;63008;-55
2024/02/25 01:37:13;;;;;;;2.67;2.58;;;;;;;2.32;89.25;95854.66;29395;238;63004;-54
2024/02/25 01:37:44;;;;;;;0.68;0.68;;;;;;;2.31;89.23;95850.38;29395;204;63009;-55
2024/02/25 01:38:16;;;;;;;0.70;0.70;;;;;;;2.33;89.21;95853.56;29395;230;63005;-55
2024/02/25 01:38:47;;;;;;;0.70;0.70;;;;;;;2.33;89.35;95850.91;29395;199;63009;-55
2024/02/25 01:39:18;;;;;;;0.70;0.70;;;;;;;2.34;89.15;95849.84;29395;205;63005;-55
2024/02/25 01:39:50;;;;;;;0.62;0.62;;;;;;;2.31;89.06;95855.72;29395;241;63009;-55
2024/02/25 01:40:22;;;;;;;0.60;0.60;;;;;;;2.30;89.34;95849.56;29394;199;64009;-54
2024/02/25 01:40:56;;;;;;;0.60;0.60;;;;;;;2.30;89.19;95854.09;29395;203;63009;-54
2024/02/25 01:41:28;;;;;;;0.70;0.70;;;;;;;2.29;89.41;95847.16;29395;220;63009;-55
2024/02/25 01:42:00;;;;;;;0.75;0.75;;;;;;;2.29;89.25;95847.16;29395;198;63009;-55
2024/02/25 01:42:31;;;;;;;0.70;0.70;;;;;;;2.34;89.16;95849.84;29395;197;63004;-55
2024/02/25 01:43:14;;;;;;;0.70;0.70;;;;;;;2.39;89.04;95846.37;29395;288;63009;-55
2024/02/25 01:43:46;;;;;;;0.70;0.70;;;;;;;2.39;88.84;95841.81;29395;220;63004;-55
2024/02/25 01:44:20;;;;;;;0.60;0.60;;;;;;;2.42;88.99;95846.63;29395;206;63008;-56
2024/02/25 01:44:58;;;;;;;0.70;0.70;;;;;;;2.43;88.54;95848.22;29395;226;63004;-55
2024/02/25 01:45:33;;;;;;;0.62;0.62;;;;;;;2.43;88.68;95848.22;29393;226;64014;-55
2024/02/25 01:46:12;;;;;;;0.70;0.70;;;;;;;2.50;88.45;95853.31;29395;209;63005;-55
2024/02/25 01:46:45;;;;;;;0.60;0.60;;;;;;;2.47;88.26;95849.28;29395;375;63009;-54
2024/02/25 01:47:16;;;;;;;0.60;0.60;;;;;;;2.47;88.13;95849.28;29395;213;63005;-56
2024/02/25 01:47:48;;;;;;;0.70;0.70;;;;;;;2.48;88.01;95844.75;29395;228;63009;-55
2024/02/25 01:48:20;;;;;;;1.65;1.65;;;;;;;2.49;88.07;95841.81;29395;234;63005;-55
2024/02/25 01:48:53;;;;;;;0.60;0.60;;;;;;;2.50;88.05;95843.41;29395;222;63009;-55
2024/02/25 01:49:24;;;;;;;0.60;0.60;;;;;;;2.51;87.79;95845.00;29395;309;63004;-55
2024/02/25 01:49:56;;;;;;;0.60;0.60;;;;;;;2.49;87.78;95841.81;29395;244;63009;-55
2024/02/25 01:50:28;;;;;;;0.68;0.68;;;;;;;2.46;87.87;95839.66;29395;238;63004;-55
2024/02/25 01:51:03;;;;;;;0.70;0.70;;;;;;;2.46;87.91;95831.63;29394;202;64013;-67
2024/02/25 01:51:35;;;;;;;0.70;0.70;;;;;;;2.48;87.87;95839.37;29395;233;63004;-67
2024/02/25 01:52:07;;;;;;;0.60;0.60;;;;;;;2.50;87.68;95838.06;29395;236;63008;-56
2024/02/25 01:52:48;;;;;;;0.70;0.70;;;;;;;2.49;87.95;95835.62;29395;197;63005;-55
2024/02/25 01:53:33;;;;;;;0.70;0.70;;;;;;;2.44;87.62;95833.75;29395;214;63009;-54
2024/02/25 01:54:05;;;;;;;0.60;0.60;;;;;;;2.47;88.05;95837.78;29395;197;63005;-56
2024/02/25 01:54:36;;;;;;;0.70;0.70;;;;;;;2.48;87.97;95834.03;29395;203;63016;-55
2024/02/25 01:55:08;;;;;;;0.60;0.60;;;;;;;2.47;88.00;95833.22;29395;224;63005;-55
2024/02/25 01:55:42;;;;;;;0.60;0.60;;;;;;;2.46;87.63;95831.63;29395;236;63009;-55
2024/02/25 01:56:14;;;;;;;0.70;0.70;;;;;;;2.47;87.81;95833.22;29394;243;64009;-55
2024/02/25 01:56:45;;;;;;;0.60;0.60;;;;;;;2.52;87.57;95835.91;29395;219;63009;-55
2024/02/25 01:57:21;;;;;;;0.60;0.60;;;;;;;2.50;87.53;95830.03;29395;278;63004;-55
2024/02/25 01:57:57;;;;;;;0.62;0.62;;;;;;;2.47;87.49;95838.59;29395;211;63009;-55
2024/02/25 01:58:32;;;;;;;0.70;0.70;;;;;;;2.53;87.27;95832.16;29395;210;63011;-54
2024/02/25 01:59:14;;;;;;;0.60;0.60;;;;;;;2.54;87.04;95828.41;29395;229;63014;-55
2024/02/25 01:59:53;;;;;;;0.62;0.62;;;;;;;2.52;87.20;95830.56;29395;220;63004;-54
2024/02/25 02:00:32;;;;;;;0.60;0.60;;;;;;;2.49;87.32;95830.28;29395;214;63009;-56
2024/02/25 02:01:05;;;;;;;0.70;0.70;;;;;;;2.48;87.46;95834.84;29395;238;63005;-55
2024/02/25 02:01:47;;;;;;;0.85;0.85;;;;;;;2.50;87.40;95831.91;29394;240;64013;-56
2024/02/25 02:02:18;;;;;;;3.67;1.33;;;;;;;2.51;87.29;95833.50;29395;250;63005;-64
2024/02/25 02:02:50;;;;;;;0.70;0.70;;;;;;;2.49;87.22;95839.13;29395;230;63009;-55
2024/02/25 02:03:21;;;;;;;0.60;0.60;;;;;;;2.48;87.43;95834.84;29394;204;64005;-55
2024/02/25 02:03:52;;;;;;;0.70;0.70;;;;;;;2.49;87.40;95831.09;29395;209;63025;-56
2024/02/25 02:04:23;;;;;;;0.70;0.70;;;;;;;2.53;87.29;95836.72;29395;248;63004;-56
2024/02/25 02:04:54;;;;;;;0.60;0.60;;;;;;;2.53;87.15;95826.81;29395;196;63009;-55
2024/02/25 02:05:26;;;;;;;0.60;0.60;;;;;;;2.53;87.26;95832.16;29395;355;63004;-58
2024/02/25 02:06:01;;;;;;;0.60;0.60;;;;;;;2.48;87.23;95831.34;29395;204;63009;-55
2024/02/25 02:06:38;;;;;;;0.60;0.60;;;;;;;2.42;87.57;95827.91;29395;210;63004;-55
2024/02/25 02:07:14;;;;;;;0.60;0.60;;;;;;;2.45;87.63;95835.38;29394;213;64032;-56
2024/02/25 02:07:48;;;;;;;50.22;46.20;;;;;;;2.44;87.61;95831.09;29385;249;65005;-55
2024/02/25 02:08:20;;;;;;;0.60;0.60;;;;;;;2.42;87.78;95830.56;29373;200;63009;-55
2024/02/25 02:08:51;;;;;;;0.62;0.62;;;;;;;2.40;87.95;95831.91;29395;242;63005;-55
2024/02/25 02:09:22;;;;;;;0.60;0.60;;;;;;;2.42;88.12;95827.91;29395;231;63009;-56
2024/02/25 02:09:57;;;;;;;0.70;0.70;;;;;;;2.44;87.99;95833.75;29395;247;63005;-67
2024/02/25 02:10:30;;;;;;;0.60;0.60;;;;;;;2.46;87.55;95836.97;29395;239;63009;-55
2024/02/25 02:11:17;;;;;;;0.60;0.60;;;;;;;2.43;87.70;95831.34;29395;210;63004;-55
2024/02/25 02:12:07;;;;;;;0.60;0.60;;;;;;;2.40;87.70;95831.91;29395;233;63009;-55
2024/02/25 02:12:44;;;;;;;0.60;0.60;;;;;;;2.40;88.05;95832.72;29394;199;64009;-55
2024/02/25 02:13:18;;;;;;;0.70;0.70;;;;;;;2.38;87.96;95829.50;29373;332;63009;-55
2024/02/25 02:13:53;;;;;;;0.60;0.60;;;;;;;2.38;88.08;95826.00;29373;246;63004;-55
2024/02/25 02:14:39;;;;;;;0.60;0.60;;;;;;;2.39;88.02;95831.09;29395;222;63008;-55
2024/02/25 02:15:12;;;;;;;0.60;0.60;;;;;;;2.44;87.87;95827.59;29395;219;63005;-55
2024/02/25 02:15:43;;;;;;;0.60;0.60;;;;;;;2.42;87.79;95827.91;29395;197;63009;-55
2024/02/25 02:16:15;;;;;;;0.60;0.60;;;;;;;2.42;87.78;95830.56;29395;222;63005;-56
2024/02/25 02:16:47;;;;;;;0.60;0.60;;;;;;;2.40;87.99;95827.34;29394;235;64009;-55
2024/02/25 02:17:23;;;;;;;0.60;0.60;;;;;;;2.38;88.07;95826.00;29395;197;63005;-55
2024/02/25 02:17:54;;;;;;;1.27;1.27;;;;;;;2.39;87.97;95820.41;29394;289;64013;-55
2024/02/25 02:18:25;;;;;;;0.65;0.65;;;;;;;2.39;87.89;95823.06;29395;288;63005;-55
2024/02/25 02:18:56;;;;;;;0.70;0.70;;;;;;;2.40;88.12;95822.00;29395;336;63009;-55
2024/02/25 02:19:28;;;;;;;0.70;0.70;;;;;;;2.40;88.11;95822.00;29373;253;63004;-55
2024/02/25 02:20:00;;;;;;;0.70;0.70;;;;;;;2.42;87.99;95821.75;29395;215;63009;-58
2024/02/25 02:20:32;;;;;;;0.70;0.70;;;;;;;2.44;87.91;95820.38;29373;227;63004;-55
2024/02/25 02:21:04;;;;;;;0.70;0.70;;;;;;;2.43;87.89;95816.09;29395;202;63008;-54
2024/02/25 02:21:35;;;;;;;0.70;0.70;;;;;;;2.40;87.82;95821.19;29395;219;63004;-55
2024/02/25 02:22:07;;;;;;;0.70;0.70;;;;;;;2.40;87.95;95822.00;29373;221;63009;-64
2024/02/25 02:22:39;;;;;;;0.70;0.70;;;;;;;2.41;87.67;95817.44;29395;271;63005;-55
2024/02/25 02:23:12;;;;;;;0.70;0.70;;;;;;;2.40;87.75;95816.66;29394;229;64014;-55
2024/02/25 02:23:44;;;;;;;0.70;0.70;;;;;;;2.41;87.81;95812.09;29395;216;63005;-55
2024/02/25 02:24:16;;;;;;;0.68;0.68;;;;;;;2.42;87.60;95816.37;29395;197;63009;-56
2024/02/25 02:24:47;;;;;;;0.70;0.70;;;;;;;2.42;87.81;95808.34;29395;232;63005;-55
2024/02/25 02:25:23;;;;;;;0.75;0.75;;;;;;;2.42;87.64;95806.47;29395;197;63009;-55
2024/02/25 02:25:55;;;;;;;0.70;0.70;;;;;;;2.40;87.88;95813.97;29373;283;63005;-55
2024/02/25 02:26:26;;;;;;;0.70;0.70;;;;;;;2.41;87.81;95810.22;29373;234;63009;-54
2024/02/25 02:26:58;;;;;;;2.45;2.25;;;;;;;2.39;87.66;95814.25;29395;265;63004;-55
2024/02/25 02:27:30;;;;;;;0.60;0.60;;;;;;;2.36;87.71;95812.91;29373;203;63009;-55
2024/02/25 02:28:02;;;;;;;0.60;0.60;;;;;;;2.36;88.08;95815.56;29395;267;63004;-55
2024/02/25 02:28:33;;;;;;;0.60;0.60;;;;;;;2.33;87.93;95821.47;29394;203;64013;-55
2024/02/25 02:29:04;;;;;;;0.60;0.60;;;;;;;2.31;88.32;95819.03;29395;203;63004;-55
2024/02/25 02:29:42;;;;;;;0.60;0.60;;;;;;;2.33;88.21;95816.09;29395;211;63009;-68
2024/02/25 02:30:13;;;;;;;0.60;0.60;;;;;;;2.31;88.26;95810.22;29395;277;63005;-54
2024/02/25 02:30:44;;;;;;;1.25;1.25;;;;;;;2.28;87.96;95818.78;29395;206;63009;-55
2024/02/25 02:31:17;;;;;;;0.60;0.60;;;;;;;2.23;88.37;95826.78;29395;199;63005;-56
2024/02/25 02:31:49;;;;;;;0.60;0.60;;;;;;;2.20;88.41;95817.41;29395;202;63009;-55
2024/02/25 02:32:20;;;;;;;0.70;0.70;;;;;;;2.22;88.71;95819.84;29395;238;63005;-56
2024/02/25 02:32:52;;;;;;;0.60;0.60;;;;;;;2.22;88.64;95809.94;29395;220;63018;-55
2024/02/25 02:33:23;;;;;;;0.60;0.60;;;;;;;2.19;88.71;95810.47;29395;219;63005;-55
2024/02/25 02:33:54;;;;;;;0.60;0.60;;;;;;;2.18;88.84;95810.72;29394;196;64013;-55
2024/02/25 02:34:27;;;;;;;0.60;0.60;;;;;;;2.21;88.77;95815.53;29395;202;63004;-56
2024/02/25 02:34:59;;;;;;;0.90;0.90;;;;;;;2.24;88.60;95813.16;29395;265;63009;-54
2024/02/25 02:35:30;;;;;;;0.60;0.60;;;;;;;2.21;88.74;95812.88;29395;259;63012;-56
2024/02/25 02:36:02;;;;;;;0.60;0.60;;;;;;;2.21;88.84;95807.53;29373;239;63009;-55
2024/02/25 02:36:34;;;;;;;0.60;0.60;;;;;;;2.21;88.79;95813.69;29395;229;63004;-55
2024/02/25 02:37:05;;;;;;;0.60;0.60;;;;;;;2.24;88.64;95812.34;29395;210;63009;-55